TimeMDT,TemperatureF,Dew PointF,Humidity,Sea Level PressureIn,VisibilityMPH,Wind Direction,Wind SpeedMPH,Gust SpeedMPH,PrecipitationIn,Events,Conditions,WindDirDegrees,DateUTC
12:00 AM,11,8,82,29.77,,NW,16.1,,,,,310,2013-10-24 06:00:00
12:00 AM,10.9,8.1,88,29.77,-9999.0,NW,16.1,-,N/A,,Unknown,310,2013-10-24 06:00:00
1:00 AM,10.2,7.3,88,29.77,-9999.0,NW,16.1,-,N/A,,Unknown,310,2013-10-24 07:00:00
2:00 AM,9.9,6.6,87,29.78,-9999.0,NW,16.1,-,0.01,,Unknown,310,2013-10-24 08:00:00
3:00 AM,9.0,5.5,86,29.78,-9999.0,WNW,15.0,-,N/A,,Unknown,300,2013-10-24 09:00:00
4:00 AM,8.2,4.8,86,29.78,-9999.0,WNW,18.4,-,N/A,,Unknown,300,2013-10-24 10:00:00
5:00 AM,8.4,5.2,87,29.77,-9999.0,NW,24.2,-,N/A,,Unknown,310,2013-10-24 11:00:00
6:00 AM,7,3,78,29.78,,NW,18.4,,,,,310,2013-10-24 12:00:00
6:00 AM,6.8,3.4,86,29.78,-9999.0,NW,17.3,-,N/A,,Unknown,310,2013-10-24 12:00:00
8:00 AM,5.0,1.6,86,29.78,-9999.0,NW,19.6,-,N/A,,Unknown,310,2013-10-24 14:00:00
9:00 AM,4.8,1.4,86,29.79,-9999.0,NW,19.6,-,N/A,,Unknown,310,2013-10-24 15:00:00
10:00 AM,4.6,1.2,86,29.79,-9999.0,WNW,24.2,-,0.01,,Unknown,300,2013-10-24 16:00:00
11:00 AM,3.6,0.1,86,29.80,-9999.0,WNW,19.6,-,N/A,,Unknown,300,2013-10-24 17:00:00
12:00 PM,3,-1,75,29.81,,WNW,21.9,,,,,300,2013-10-24 18:00:00
12:00 PM,2.8,-0.9,84,29.81,-9999.0,WNW,23.0,-,N/A,,Unknown,300,2013-10-24 18:00:00
1:00 PM,2.8,-0.8,85,-9999,-9999.0,WNW,24.2,-,N/A,,Unknown,300,2013-10-24 19:00:00
2:00 PM,2.8,-0.8,85,29.84,-9999.0,WNW,19.6,-,N/A,,Unknown,290,2013-10-24 20:00:00
4:00 PM,2.5,-1.3,84,29.86,-9999.0,WNW,12.7,-,N/A,,Unknown,290,2013-10-24 22:00:00
5:00 PM,2.3,-1.5,84,29.85,-9999.0,WNW,13.8,-,N/A,,Unknown,300,2013-10-24 23:00:00
6:00 PM,2,-1,78,29.85,,NW,16.1,,,,,310,2013-10-25 00:00:00
6:00 PM,2.3,-1.3,85,29.85,-9999.0,WNW,16.1,-,N/A,,Unknown,300,2013-10-25 00:00:00
7:00 PM,2.8,-0.6,86,29.86,-9999.0,NW,5.8,-,N/A,,Unknown,310,2013-10-25 01:00:00
8:00 PM,2.1,-1.5,85,29.85,-9999.0,NW,8.1,-,N/A,,Unknown,310,2013-10-25 02:00:00
9:00 PM,1.8,-1.5,86,29.86,-9999.0,North,6.9,-,N/A,,Unknown,350,2013-10-25 03:00:00
10:00 PM,2.5,-1.1,85,29.86,-9999.0,NNW,5.8,-,N/A,,Unknown,340,2013-10-25 04:00:00
11:00 PM,2.8,-0.6,86,29.87,-9999.0,NNW,4.6,-,N/A,,Unknown,330,2013-10-25 05:00:00